Garfield, AR

1:21 AM CDT on April 01, 2015 (GMT -0500)
NW Arkansas Airport | | Change Station
CLOSE
Current Station
Airport
Location: NW Arkansas Airport,
Elevation: 1286 ft
Nearby Weather Stations

Elev 1286 ft 36.28 °N, 94.31 °W | Updated 28 minutes ago

Clear
Clear
56 °F
Feels Like 56 °F
N
6
Wind Variable Wind from SSW

Today
High -- | Low -- °F
--% Chance of Precip.
Yesterday
High -- | Low -- °F
Precip. -- in
7:02 AM 7:37 PM
Waxing Gibbous, 91% visible
Pressure 29.92 in
Visibility 10.0 miles
Clouds Clear
Dew Point 51 °F
Humidity 84%
Rainfall 0.00 in
Snow Depth Not available.
UV 0 out of 12
Pollen 10.70 out of 12
Air Quality Not available.
Flu Activity Not available.
METAR KXNA 010553Z AUTO 20005KT 10SM CLR 13/11 A2995 RMK AO2 SLP130 T01330106 10250 20128 402780111 53004

More Conditions Fewer Conditions

Pressure 29.92 in
Visibility 10.0 miles
Clouds Clear
Dew Point 51 °F
Humidity 84%
Rainfall 0.00 in
Snow Depth Not available.
UV 0 out of 12
Pollen 10.70 out of 12
Air Quality Not available.
Flu Activity Not available.
METAR KXNA 010553Z AUTO 20005KT 10SM CLR 13/11 A2995 RMK AO2 SLP130 T01330106 10250 20128 402780111 53004

More Conditions Fewer Conditions

Nowcast | as of 12:28 am CDT on April 1, 2015

At 12:30 am...weather radars continued to indicate scattered thunderstorms along and west of Highway 75...with widespread strong to severe storms ongoing across central Oklahoma. The movement of the storms has been slow...and generally to the northwest...over the last few hours. Through 1:30 am...scattered thunderstorms will likely continue west of a line from Bartlesville to Poteau...with a continue chance of severe weather developing. The storms across central Oklahoma may gradually spread eastward...however a general weakening trend is expected through the early morning hours.

×

10-Day Weather Forecast

Almanac

Astronomy

Apr. 01, 2015 Rise Set
Actual Time
Civil Twilight
Nautical Twilight
Astronomical Twilight
Moon
Length of Visible Light
Length of Day
Tomorrow will be .
, % of the Moon is Illuminated

Today's Extremes

State Highs State Lows

Community

WunderPhotos

Upload Photos

1,809,924 photos uploaded!

WunderBlogs® & News

Nearby

Air Quality

  Air Quality AQ Index Pollutant
Not available.

Snow Depth

Station Depth Elevation

Earthquake Activity

City Distance Mag. Time & Date
Minimum magnitude displayed is 2.5.

Coastal Water Temperatures

Place Temperature

Stations

Nearby Weather Stations

Station Location Temp. Windchill Dew Point Humidity Wind Precip. Elev Updated Type